createdAt,value
2023-02-21T00:00:49.870Z,8.81
2023-02-21T00:07:10.919Z,8.78
2023-02-21T00:13:31.603Z,8.75
2023-02-21T00:19:52.168Z,8.65
2023-02-21T00:26:15.654Z,8.75
2023-02-21T00:32:36.402Z,8.75
2023-02-21T00:38:57.009Z,8.78
2023-02-21T00:45:17.652Z,8.96
2023-02-21T00:51:38.820Z,8.94
2023-02-21T00:58:00.115Z,8.88
2023-02-21T01:04:20.709Z,8.88
2023-02-21T01:10:43.190Z,9.11
2023-02-21T01:17:12.970Z,9.14
2023-02-21T01:23:34.462Z,9.01
2023-02-21T01:29:55.545Z,8.84
2023-02-21T01:36:16.214Z,8.79
2023-02-21T01:42:37.336Z,8.75
2023-02-21T01:48:58.581Z,8.71
2023-02-21T01:55:19.481Z,8.70
2023-02-21T02:02:03.630Z,8.78
2023-02-21T02:08:24.491Z,8.52
2023-02-21T02:14:48.988Z,8.34
2023-02-21T02:21:21.068Z,8.35
2023-02-21T02:27:45.827Z,8.18
2023-02-21T02:34:26.192Z,8.05
2023-02-21T02:40:54.245Z,7.84
2023-02-21T02:47:03.744Z,7.91
2023-02-21T02:53:06.229Z,7.75
2023-02-21T02:59:18.246Z,7.80
2023-02-21T03:05:29.646Z,7.80
2023-02-21T03:11:33.546Z,7.84
2023-02-21T03:17:41.426Z,7.79
2023-02-21T03:23:46.861Z,7.91
2023-02-21T03:29:51.838Z,8.08
2023-02-21T03:35:56.153Z,7.92
2023-02-21T03:41:59.945Z,8.04
2023-02-21T03:48:08.471Z,8.06
2023-02-21T03:54:12.643Z,8.11
2023-02-21T04:00:20.670Z,8.27
2023-02-21T04:06:28.034Z,8.42
2023-02-21T04:12:33.267Z,8.49
2023-02-21T04:18:37.666Z,8.55
2023-02-21T04:24:43.836Z,8.47
2023-02-21T04:30:48.057Z,8.55
2023-02-21T04:36:50.653Z,8.21
2023-02-21T04:42:53.135Z,8.27
2023-02-21T04:48:57.646Z,8.33
2023-02-21T04:54:59.866Z,8.25
2023-02-21T05:07:51.597Z,8.51
2023-02-21T05:13:56.071Z,8.28
2023-02-21T05:20:00.721Z,8.38
2023-02-21T05:26:14.887Z,8.72
2023-02-21T05:32:23.279Z,8.66
2023-02-21T05:38:28.384Z,8.65
2023-02-21T05:44:33.422Z,8.71
2023-02-21T05:50:41.239Z,8.65
2023-02-21T05:56:47.563Z,8.85
2023-02-21T06:02:52.440Z,8.80
2023-02-21T06:08:54.713Z,8.70
2023-02-21T06:14:58.555Z,8.81
2023-02-21T06:21:00.679Z,8.94
2023-02-21T06:27:03.492Z,9.22
2023-02-21T06:33:05.644Z,9.40
2023-02-21T06:39:08.452Z,9.44
2023-02-21T06:45:11.757Z,9.71
2023-02-21T06:51:17.653Z,9.92
2023-02-21T06:57:20.332Z,9.99
2023-02-21T07:03:23.214Z,10.11
2023-02-21T07:09:27.508Z,10.20
2023-02-21T07:15:32.975Z,10.53
2023-02-21T07:21:36.451Z,10.75
2023-02-21T07:27:38.885Z,11.14
2023-02-21T07:33:41.298Z,11.58
2023-02-21T07:39:43.467Z,12.01
2023-02-21T07:45:47.627Z,12.31
2023-02-21T07:51:54.435Z,12.39
2023-02-21T07:57:58.432Z,12.66
2023-02-21T08:04:04.539Z,13.25
2023-02-21T08:10:07.221Z,13.41
2023-02-21T08:16:09.399Z,13.94
2023-02-21T08:22:11.912Z,14.46
2023-02-21T08:28:14.912Z,14.45
2023-02-21T08:34:18.025Z,14.67
2023-02-21T08:40:22.106Z,15.33
2023-02-21T08:46:24.739Z,15.74
2023-02-21T08:52:29.061Z,16.20
2023-02-21T08:58:31.547Z,16.56
2023-02-21T09:04:38.394Z,16.69
2023-02-21T09:10:47.742Z,16.57
2023-02-21T09:16:55.036Z,16.73
2023-02-21T09:22:59.002Z,16.95
2023-02-21T09:29:06.961Z,17.05
2023-02-21T09:35:16.581Z,17.37
2023-02-21T09:41:20.148Z,17.11
2023-02-21T09:47:29.679Z,17.65
2023-02-21T09:53:45.891Z,17.40
2023-02-21T09:59:49.571Z,17.82
2023-02-21T10:06:00.260Z,17.86
2023-02-21T10:12:23.559Z,17.94
2023-02-21T10:18:48.663Z,18.30
2023-02-21T10:24:51.634Z,18.68
2023-02-21T10:31:00.244Z,18.76
2023-02-21T10:37:14.216Z,19.01
2023-02-21T10:43:48.325Z,18.60
2023-02-21T10:50:01.206Z,19.00
2023-02-21T10:56:09.034Z,18.83
2023-02-21T11:02:34.472Z,19.28
2023-02-21T11:08:48.352Z,19.40
2023-02-21T11:14:52.922Z,19.50
2023-02-21T11:20:57.722Z,19.29
2023-02-21T11:27:07.341Z,19.45
2023-02-21T11:33:10.736Z,20.24
2023-02-21T11:39:28.749Z,20.65
2023-02-21T11:45:35.376Z,20.37
2023-02-21T11:51:45.021Z,20.45
2023-02-21T11:58:15.911Z,20.83
2023-02-21T12:04:58.586Z,21.05
2023-02-21T12:11:39.480Z,21.33
2023-02-21T12:18:13.043Z,21.05
2023-02-21T12:24:41.664Z,20.81
2023-02-21T12:31:21.104Z,20.96
2023-02-21T12:37:31.990Z,20.67
2023-02-21T12:44:07.904Z,20.64
2023-02-21T12:50:33.016Z,20.44
2023-02-21T12:56:38.384Z,20.70
2023-02-21T13:02:54.135Z,20.54
2023-02-21T13:09:09.496Z,20.53
2023-02-21T13:15:13.015Z,20.40
2023-02-21T13:21:43.419Z,20.29
2023-02-21T13:27:49.202Z,20.14
2023-02-21T13:33:57.218Z,19.78
2023-02-21T13:40:26.131Z,19.34
2023-02-21T13:46:44.755Z,19.37
2023-02-21T13:53:14.923Z,19.39
2023-02-21T13:59:26.498Z,19.35
2023-02-21T14:05:50.169Z,19.48
2023-02-21T14:11:54.310Z,19.29
2023-02-21T14:18:14.258Z,19.43
2023-02-21T14:24:26.131Z,19.35
2023-02-21T14:30:37.661Z,19.49
2023-02-21T14:36:42.471Z,19.54
2023-02-21T14:43:12.370Z,19.57
2023-02-21T14:49:40.676Z,19.45
2023-02-21T14:56:04.141Z,19.17
2023-02-21T15:02:37.335Z,19.06
2023-02-21T15:08:45.788Z,19.09
2023-02-21T15:14:52.105Z,19.04
2023-02-21T15:21:05.507Z,18.91
2023-02-21T15:27:17.689Z,18.84
2023-02-21T15:33:24.355Z,18.65
2023-02-21T15:40:00.009Z,18.56
2023-02-21T15:46:11.569Z,18.38
2023-02-21T15:52:34.849Z,18.35
2023-02-21T15:58:39.902Z,18.25
2023-02-21T16:04:51.719Z,18.15
2023-02-21T16:11:07.221Z,18.10
2023-02-21T16:17:20.401Z,18.06
2023-02-21T16:23:43.357Z,17.93
2023-02-21T16:29:50.305Z,17.86
2023-02-21T16:35:53.242Z,17.82
2023-02-21T16:42:06.064Z,17.77
2023-02-21T16:48:18.331Z,17.70
2023-02-21T16:54:21.678Z,17.62
2023-02-21T17:00:24.979Z,17.47
2023-02-21T17:06:37.504Z,17.48
2023-02-21T17:12:41.684Z,17.37
2023-02-21T17:18:47.438Z,17.28
2023-02-21T17:24:50.706Z,17.24
2023-02-21T17:30:53.510Z,17.22
2023-02-21T17:36:57.078Z,17.11
2023-02-21T17:43:10.246Z,16.93
2023-02-21T17:49:12.747Z,16.87
2023-02-21T17:55:26.241Z,16.76
2023-02-21T18:01:30.324Z,16.75
2023-02-21T18:07:35.646Z,16.70
2023-02-21T18:13:41.760Z,16.72
2023-02-21T18:19:44.009Z,16.46
2023-02-21T18:25:49.278Z,16.36
2023-02-21T18:31:58.663Z,16.23
2023-02-21T18:38:01.768Z,16.13
